sensor_id;sensor_type;location;lat;lon;timestamp;pressure;altitude;pressure_sealevel;temperature;humidity
29247;BME280;16272;48.188;9.964;2023-01-29T00:01:50;96680.03;;;0.23;76.07
29247;BME280;16272;48.188;9.964;2023-01-29T00:04:16;96685.16;;;0.05;76.87
29247;BME280;16272;48.188;9.964;2023-01-29T00:06:41;96691.13;;;-0.34;78.20
29247;BME280;16272;48.188;9.964;2023-01-29T00:09:10;96690.28;;;-0.14;77.94
29247;BME280;16272;48.188;9.964;2023-01-29T00:11:37;96686.56;;;-0.08;77.68
29247;BME280;16272;48.188;9.964;2023-01-29T00:14:02;96670.66;;;0.18;76.80
29247;BME280;16272;48.188;9.964;2023-01-29T00:16:27;96670.69;;;-0.04;76.90
29247;BME280;16272;48.188;9.964;2023-01-29T00:18:53;96659.28;;;-0.01;76.92
29247;BME280;16272;48.188;9.964;2023-01-29T00:21:20;96659.91;;;-0.16;77.89
29247;BME280;16272;48.188;9.964;2023-01-29T00:23:49;96676.47;;;-0.38;78.28
29247;BME280;16272;48.188;9.964;2023-01-29T00:26:15;96679.25;;;0.21;76.58
29247;BME280;16272;48.188;9.964;2023-01-29T00:28:40;96688.53;;;0.07;76.43
29247;BME280;16272;48.188;9.964;2023-01-29T00:31:14;96700.34;;;-0.05;76.88
29247;BME280;16272;48.188;9.964;2023-01-29T00:33:40;96705.13;;;-0.14;77.16
29247;BME280;16272;48.188;9.964;2023-01-29T00:36:07;96705.84;;;-0.33;77.90
29247;BME280;16272;48.188;9.964;2023-01-29T00:38:33;96697.25;;;-0.35;78.34
29247;BME280;16272;48.188;9.964;2023-01-29T00:41:13;96704.22;;;-0.35;78.08
29247;BME280;16272;48.188;9.964;2023-01-29T00:43:59;96699.81;;;0.08;76.57
29247;BME280;16272;48.188;9.964;2023-01-29T00:46:44;96695.97;;;-0.04;77.14
29247;BME280;16272;48.188;9.964;2023-01-29T00:49:10;96693.56;;;-0.09;77.17
29247;BME280;16272;48.188;9.964;2023-01-29T00:51:36;96700.19;;;-0.22;77.66
29247;BME280;16272;48.188;9.964;2023-01-29T00:54:03;96702.63;;;0.03;76.60
29247;BME280;16272;48.188;9.964;2023-01-29T00:56:31;96710.34;;;-0.14;76.75
29247;BME280;16272;48.188;9.964;2023-01-29T00:58:57;96695.25;;;-0.08;76.76
29247;BME280;16272;48.188;9.964;2023-01-29T01:01:23;96693.31;;;-0.03;76.24
29247;BME280;16272;48.188;9.964;2023-01-29T01:04:08;96689.78;;;0.19;75.95
29247;BME280;16272;48.188;9.964;2023-01-29T01:06:36;96700.44;;;-0.06;76.22
29247;BME280;16272;48.188;9.964;2023-01-29T01:09:02;96703.88;;;-0.06;76.03
29247;BME280;16272;48.188;9.964;2023-01-29T01:11:46;96707.44;;;-0.08;76.13
29247;BME280;16272;48.188;9.964;2023-01-29T01:14:12;96699.78;;;-0.11;76.89
29247;BME280;16272;48.188;9.964;2023-01-29T01:16:37;96695.03;;;-0.24;76.49
29247;BME280;16272;48.188;9.964;2023-01-29T01:19:03;96704.59;;;-0.23;77.00
29247;BME280;16272;48.188;9.964;2023-01-29T01:21:29;96695.59;;;0.05;76.15
29247;BME280;16272;48.188;9.964;2023-01-29T01:23:54;96697.94;;;-0.09;75.57
29247;BME280;16272;48.188;9.964;2023-01-29T01:26:19;96698.84;;;0.10;75.14
29247;BME280;16272;48.188;9.964;2023-01-29T01:28:45;96697.94;;;-0.09;75.81
29247;BME280;16272;48.188;9.964;2023-01-29T01:31:12;96700.03;;;-0.17;76.21
29247;BME280;16272;48.188;9.964;2023-01-29T01:33:38;96701.63;;;-0.15;75.87
29247;BME280;16272;48.188;9.964;2023-01-29T01:36:05;96695.44;;;-0.12;75.95
29247;BME280;16272;48.188;9.964;2023-01-29T01:38:35;96704.72;;;-0.26;76.36
29247;BME280;16272;48.188;9.964;2023-01-29T01:41:01;96699.06;;;-0.37;76.67
29247;BME280;16272;48.188;9.964;2023-01-29T01:43:26;96695.81;;;-0.42;75.63
29247;BME280;16272;48.188;9.964;2023-01-29T01:45:51;96691.38;;;-0.40;75.62
29247;BME280;16272;48.188;9.964;2023-01-29T01:48:22;96694.50;;;-0.52;76.53
29247;BME280;16272;48.188;9.964;2023-01-29T01:50:58;96695.34;;;-0.31;76.64
29247;BME280;16272;48.188;9.964;2023-01-29T01:53:35;96683.28;;;-0.34;76.31
29247;BME280;16272;48.188;9.964;2023-01-29T01:56:12;96680.47;;;-0.72;77.05
29247;BME280;16272;48.188;9.964;2023-01-29T01:58:45;96677.59;;;-0.66;77.00
29247;BME280;16272;48.188;9.964;2023-01-29T02:01:12;96686.94;;;-0.82;77.05
29247;BME280;16272;48.188;9.964;2023-01-29T02:03:44;96684.16;;;-0.56;76.96
29247;BME280;16272;48.188;9.964;2023-01-29T02:06:29;96695.09;;;-0.68;76.52
29247;BME280;16272;48.188;9.964;2023-01-29T02:09:21;96698.84;;;-0.31;75.23
29247;BME280;16272;48.188;9.964;2023-01-29T02:12:08;96688.88;;;-0.43;75.33
29247;BME280;16272;48.188;9.964;2023-01-29T02:14:36;96684.78;;;-0.71;77.24
29247;BME280;16272;48.188;9.964;2023-01-29T02:17:09;96695.22;;;-0.49;76.33
29247;BME280;16272;48.188;9.964;2023-01-29T02:22:33;96685.97;;;-0.58;77.07
29247;BME280;16272;48.188;9.964;2023-01-29T02:28:04;96681.28;;;-0.49;76.73
29247;BME280;16272;48.188;9.964;2023-01-29T02:30:44;96679.91;;;-0.36;75.86
29247;BME280;16272;48.188;9.964;2023-01-29T02:38:48;96674.72;;;-0.80;76.40
29247;BME280;16272;48.188;9.964;2023-01-29T02:41:27;96674.34;;;-0.28;75.20
29247;BME280;16272;48.188;9.964;2023-01-29T02:44:05;96665.31;;;-0.42;75.43
29247;BME280;16272;48.188;9.964;2023-01-29T02:46:39;96684.25;;;-0.37;74.34
29247;BME280;16272;48.188;9.964;2023-01-29T02:51:45;96689.00;;;-0.46;75.33
29247;BME280;16272;48.188;9.964;2023-01-29T02:57:32;96686.69;;;-0.32;75.05
29247;BME280;16272;48.188;9.964;2023-01-29T03:03:01;96674.81;;;-0.19;74.93
29247;BME280;16272;48.188;9.964;2023-01-29T03:05:42;96684.25;;;-0.37;75.38
29247;BME280;16272;48.188;9.964;2023-01-29T03:08:14;96679.28;;;-0.43;77.03
29247;BME280;16272;48.188;9.964;2023-01-29T03:10:57;96679.66;;;-0.09;74.88
29247;BME280;16272;48.188;9.964;2023-01-29T03:16:49;96682.59;;;-0.60;77.93
29247;BME280;16272;48.188;9.964;2023-01-29T03:19:32;96684.66;;;-0.25;75.73
29247;BME280;16272;48.188;9.964;2023-01-29T03:22:01;96682.72;;;-0.20;75.51
29247;BME280;16272;48.188;9.964;2023-01-29T03:24:44;96689.94;;;-0.27;75.19
29247;BME280;16272;48.188;9.964;2023-01-29T03:27:37;96677.88;;;-0.09;75.01
29247;BME280;16272;48.188;9.964;2023-01-29T03:30:24;96674.03;;;-0.21;75.45
29247;BME280;16272;48.188;9.964;2023-01-29T03:33:13;96675.22;;;-0.28;76.39
29247;BME280;16272;48.188;9.964;2023-01-29T03:35:49;96683.28;;;-0.13;74.75
29247;BME280;16272;48.188;9.964;2023-01-29T03:38:17;96685.38;;;-0.42;75.85
29247;BME280;16272;48.188;9.964;2023-01-29T03:40:48;96675.47;;;-0.13;74.39
29247;BME280;16272;48.188;9.964;2023-01-29T03:43:29;96675.31;;;0.31;73.70
29247;BME280;16272;48.188;9.964;2023-01-29T03:46:34;96674.47;;;0.30;73.64
29247;BME280;16272;48.188;9.964;2023-01-29T03:49:11;96676.91;;;-0.06;74.86
29247;BME280;16272;48.188;9.964;2023-01-29T03:52:08;96679.91;;;-0.15;75.62
29247;BME280;16272;48.188;9.964;2023-01-29T03:57:43;96680.81;;;-0.16;75.70
29247;BME280;16272;48.188;9.964;2023-01-29T04:00:17;96682.06;;;-0.25;75.91
29247;BME280;16272;48.188;9.964;2023-01-29T04:05:23;96679.56;;;-0.49;75.93
29247;BME280;16272;48.188;9.964;2023-01-29T04:07:52;96683.72;;;-0.45;76.27
29247;BME280;16272;48.188;9.964;2023-01-29T04:10:23;96679.44;;;-0.68;77.06
29247;BME280;16272;48.188;9.964;2023-01-29T04:13:03;96676.59;;;-0.41;76.08
29247;BME280;16272;48.188;9.964;2023-01-29T04:15:35;96675.41;;;-0.32;75.47
29247;BME280;16272;48.188;9.964;2023-01-29T04:18:02;96675.47;;;-0.13;74.81
29247;BME280;16272;48.188;9.964;2023-01-29T04:20:28;96675.88;;;-0.45;76.43
29247;BME280;16272;48.188;9.964;2023-01-29T04:22:54;96673.78;;;-0.14;75.63
29247;BME280;16272;48.188;9.964;2023-01-29T04:25:27;96675.94;;;0.17;74.06
29247;BME280;16272;48.188;9.964;2023-01-29T04:28:15;96666.59;;;-0.09;74.14
29247;BME280;16272;48.188;9.964;2023-01-29T04:31:03;96666.56;;;0.11;73.69
29247;BME280;16272;48.188;9.964;2023-01-29T04:33:41;96662.03;;;-0.04;74.22
29247;BME280;16272;48.188;9.964;2023-01-29T04:36:25;96662.34;;;-0.12;74.36
29247;BME280;16272;48.188;9.964;2023-01-29T04:39:18;96671.78;;;-0.30;75.08
29247;BME280;16272;48.188;9.964;2023-01-29T04:41:58;96677.13;;;-0.33;75.92
29247;BME280;16272;48.188;9.964;2023-01-29T04:44:42;96676.72;;;-0.22;75.07
29247;BME280;16272;48.188;9.964;2023-01-29T04:47:20;96670.25;;;-0.13;74.73
29247;BME280;16272;48.188;9.964;2023-01-29T04:53:06;96670.53;;;-0.20;74.96
29247;BME280;16272;48.188;9.964;2023-01-29T04:55:40;96679.84;;;-0.14;74.31
29247;BME280;16272;48.188;9.964;2023-01-29T04:58:11;96680.97;;;-0.20;75.17
29247;BME280;16272;48.188;9.964;2023-01-29T05:00:45;96677.53;;;-0.22;74.86
29247;BME280;16272;48.188;9.964;2023-01-29T05:03:14;96687.63;;;-0.12;75.22
29247;BME280;16272;48.188;9.964;2023-01-29T05:05:42;96686.16;;;-0.40;75.78
29247;BME280;16272;48.188;9.964;2023-01-29T05:08:11;96683.50;;;-0.61;76.25
29247;BME280;16272;48.188;9.964;2023-01-29T05:10:37;96675.34;;;-0.31;75.86
29247;BME280;16272;48.188;9.964;2023-01-29T05:13:05;96680.50;;;-0.51;76.46
29247;BME280;16272;48.188;9.964;2023-01-29T05:15:40;96696.59;;;-0.40;76.08
29247;BME280;16272;48.188;9.964;2023-01-29T05:18:08;96696.94;;;-0.49;76.50
29247;BME280;16272;48.188;9.964;2023-01-29T05:20:39;96700.91;;;-0.39;76.44
29247;BME280;16272;48.188;9.964;2023-01-29T05:23:19;96709.47;;;-0.80;77.90
29247;BME280;16272;48.188;9.964;2023-01-29T05:25:46;96705.53;;;-0.68;77.81
29247;BME280;16272;48.188;9.964;2023-01-29T05:28:12;96707.31;;;-0.48;76.65
29247;BME280;16272;48.188;9.964;2023-01-29T05:30:46;96710.53;;;-0.41;76.21
29247;BME280;16272;48.188;9.964;2023-01-29T05:33:19;96715.63;;;-0.16;75.48
29247;BME280;16272;48.188;9.964;2023-01-29T05:35:45;96718.41;;;-0.21;75.45
29247;BME280;16272;48.188;9.964;2023-01-29T05:38:11;96708.00;;;0.00;75.50
29247;BME280;16272;48.188;9.964;2023-01-29T05:40:37;96699.44;;;0.17;74.09
29247;BME280;16272;48.188;9.964;2023-01-29T05:43:03;96706.75;;;0.09;74.24
29247;BME280;16272;48.188;9.964;2023-01-29T05:45:28;96703.78;;;-0.25;74.73
29247;BME280;16272;48.188;9.964;2023-01-29T05:47:55;96701.53;;;0.09;74.05
29247;BME280;16272;48.188;9.964;2023-01-29T05:50:22;96695.19;;;-0.71;76.70
29247;BME280;16272;48.188;9.964;2023-01-29T05:52:47;96700.66;;;-0.77;77.89
29247;BME280;16272;48.188;9.964;2023-01-29T05:55:13;96698.53;;;-0.45;76.61
29247;BME280;16272;48.188;9.964;2023-01-29T05:57:39;96697.56;;;0.00;75.64
29247;BME280;16272;48.188;9.964;2023-01-29T06:00:05;96693.81;;;0.26;73.85
29247;BME280;16272;48.188;9.964;2023-01-29T06:02:31;96696.56;;;0.03;74.62
29247;BME280;16272;48.188;9.964;2023-01-29T06:04:56;96694.78;;;0.03;74.22
29247;BME280;16272;48.188;9.964;2023-01-29T06:07:22;96689.75;;;-0.65;76.07
29247;BME280;16272;48.188;9.964;2023-01-29T06:09:47;96702.38;;;-0.76;77.86
29247;BME280;16272;48.188;9.964;2023-01-29T06:12:12;96687.66;;;-1.01;77.64
29247;BME280;16272;48.188;9.964;2023-01-29T06:14:38;96699.25;;;-1.32;80.60
29247;BME280;16272;48.188;9.964;2023-01-29T06:17:03;96694.94;;;-1.09;79.94
29247;BME280;16272;48.188;9.964;2023-01-29T06:19:29;96692.09;;;-0.81;78.10
29247;BME280;16272;48.188;9.964;2023-01-29T06:21:54;96698.44;;;-0.22;76.05
29247;BME280;16272;48.188;9.964;2023-01-29T06:24:20;96710.84;;;-0.93;77.69
29247;BME280;16272;48.188;9.964;2023-01-29T06:26:45;96705.06;;;-0.35;74.66
29247;BME280;16272;48.188;9.964;2023-01-29T06:29:10;96700.38;;;-0.27;74.26
29247;BME280;16272;48.188;9.964;2023-01-29T06:31:35;96693.84;;;-0.59;73.81
29247;BME280;16272;48.188;9.964;2023-01-29T06:34:01;96700.31;;;-0.68;74.92
29247;BME280;16272;48.188;9.964;2023-01-29T06:36:26;96699.56;;;-0.94;76.82
29247;BME280;16272;48.188;9.964;2023-01-29T06:38:52;96699.50;;;-0.48;76.32
29247;BME280;16272;48.188;9.964;2023-01-29T06:41:18;96694.84;;;-0.62;75.04
29247;BME280;16272;48.188;9.964;2023-01-29T06:43:44;96687.28;;;-0.25;73.98
29247;BME280;16272;48.188;9.964;2023-01-29T06:46:10;96683.56;;;-0.84;74.89
29247;BME280;16272;48.188;9.964;2023-01-29T06:48:35;96688.72;;;-1.28;78.53
29247;BME280;16272;48.188;9.964;2023-01-29T06:51:05;96686.66;;;-1.20;78.73
29247;BME280;16272;48.188;9.964;2023-01-29T06:53:32;96677.03;;;-1.18;78.57
29247;BME280;16272;48.188;9.964;2023-01-29T06:55:57;96670.41;;;-0.81;77.28
29247;BME280;16272;48.188;9.964;2023-01-29T06:58:23;96673.72;;;-0.56;74.52
29247;BME280;16272;48.188;9.964;2023-01-29T07:00:48;96679.63;;;-0.95;76.75
29247;BME280;16272;48.188;9.964;2023-01-29T07:03:14;96680.75;;;-0.58;75.89
29247;BME280;16272;48.188;9.964;2023-01-29T07:05:39;96683.22;;;-0.12;74.88
29247;BME280;16272;48.188;9.964;2023-01-29T07:08:04;96688.41;;;-0.75;75.96
29247;BME280;16272;48.188;9.964;2023-01-29T07:10:30;96682.75;;;-1.08;77.06
29247;BME280;16272;48.188;9.964;2023-01-29T07:12:57;96679.91;;;-0.58;76.92
29247;BME280;16272;48.188;9.964;2023-01-29T07:15:23;96695.19;;;-0.71;76.15
29247;BME280;16272;48.188;9.964;2023-01-29T07:18:01;96693.84;;;-0.37;75.35
29247;BME280;16272;48.188;9.964;2023-01-29T07:20:29;96692.19;;;-0.17;74.31
29247;BME280;16272;48.188;9.964;2023-01-29T07:22:56;96681.72;;;0.03;72.30
29247;BME280;16272;48.188;9.964;2023-01-29T07:25:21;96694.69;;;-0.37;72.82
29247;BME280;16272;48.188;9.964;2023-01-29T07:27:47;96697.00;;;-0.29;72.57
29247;BME280;16272;48.188;9.964;2023-01-29T07:30:13;96695.63;;;-0.60;74.50
29247;BME280;16272;48.188;9.964;2023-01-29T07:32:38;96698.25;;;-0.60;75.57
29247;BME280;16272;48.188;9.964;2023-01-29T07:35:04;96701.78;;;-0.61;72.86
29247;BME280;16272;48.188;9.964;2023-01-29T07:37:29;96705.00;;;-0.11;72.88
29247;BME280;16272;48.188;9.964;2023-01-29T07:39:54;96695.38;;;-0.11;71.84
29247;BME280;16272;48.188;9.964;2023-01-29T07:42:20;96693.75;;;0.07;71.38
29247;BME280;16272;48.188;9.964;2023-01-29T07:44:45;96684.03;;;0.11;71.80
29247;BME280;16272;48.188;9.964;2023-01-29T07:47:10;96686.13;;;-0.61;73.69
29247;BME280;16272;48.188;9.964;2023-01-29T07:49:36;96687.19;;;-0.44;73.94
29247;BME280;16272;48.188;9.964;2023-01-29T07:52:01;96689.94;;;-0.91;74.94
29247;BME280;16272;48.188;9.964;2023-01-29T07:54:26;96687.13;;;-0.65;74.82
29247;BME280;16272;48.188;9.964;2023-01-29T07:56:52;96689.44;;;-0.57;74.69
29247;BME280;16272;48.188;9.964;2023-01-29T07:59:17;96691.94;;;-0.54;76.33
29247;BME280;16272;48.188;9.964;2023-01-29T08:01:42;96695.16;;;-0.47;73.55
29247;BME280;16272;48.188;9.964;2023-01-29T08:04:08;96691.19;;;0.26;69.70
29247;BME280;16272;48.188;9.964;2023-01-29T08:06:33;96698.50;;;-0.23;71.53
29247;BME280;16272;48.188;9.964;2023-01-29T08:08:58;96696.72;;;-0.87;73.94
29247;BME280;16272;48.188;9.964;2023-01-29T08:11:25;96697.25;;;-0.79;73.92
29247;BME280;16272;48.188;9.964;2023-01-29T08:13:51;96697.81;;;-0.71;74.77
29247;BME280;16272;48.188;9.964;2023-01-29T08:16:16;96705.38;;;-0.21;72.26
29247;BME280;16272;48.188;9.964;2023-01-29T08:18:42;96698.41;;;0.01;72.81
29247;BME280;16272;48.188;9.964;2023-01-29T08:21:10;96706.16;;;0.02;71.02
29247;BME280;16272;48.188;9.964;2023-01-29T08:23:35;96708.97;;;-0.03;70.23
29247;BME280;16272;48.188;9.964;2023-01-29T08:26:02;96706.63;;;0.12;71.60
29247;BME280;16272;48.188;9.964;2023-01-29T08:28:27;96712.44;;;0.18;70.05
29247;BME280;16272;48.188;9.964;2023-01-29T08:30:52;96712.03;;;0.07;69.78
29247;BME280;16272;48.188;9.964;2023-01-29T08:33:18;96717.75;;;0.57;68.80
29247;BME280;16272;48.188;9.964;2023-01-29T08:35:48;96720.91;;;0.84;69.67
29247;BME280;16272;48.188;9.964;2023-01-29T08:38:14;96722.69;;;1.02;67.41
29247;BME280;16272;48.188;9.964;2023-01-29T08:40:39;96718.78;;;1.11;68.38
29247;BME280;16272;48.188;9.964;2023-01-29T08:43:06;96723.59;;;1.20;67.98
29247;BME280;16272;48.188;9.964;2023-01-29T08:45:33;96729.53;;;0.86;68.13
29247;BME280;16272;48.188;9.964;2023-01-29T08:47:59;96744.78;;;0.76;67.41
29247;BME280;16272;48.188;9.964;2023-01-29T08:50:24;96738.59;;;-0.46;72.77
29247;BME280;16272;48.188;9.964;2023-01-29T08:52:50;96736.09;;;-0.27;72.80
29247;BME280;16272;48.188;9.964;2023-01-29T08:55:15;96742.09;;;0.38;70.16
29247;BME280;16272;48.188;9.964;2023-01-29T08:57:41;96747.28;;;0.59;70.10
29247;BME280;16272;48.188;9.964;2023-01-29T09:00:07;96740.25;;;0.80;68.68
29247;BME280;16272;48.188;9.964;2023-01-29T09:02:34;96730.69;;;0.99;68.29
29247;BME280;16272;48.188;9.964;2023-01-29T09:04:59;96736.34;;;1.09;67.82
29247;BME280;16272;48.188;9.964;2023-01-29T09:07:24;96733.44;;;0.57;69.04
29247;BME280;16272;48.188;9.964;2023-01-29T09:09:50;96742.03;;;-0.02;70.45
29247;BME280;16272;48.188;9.964;2023-01-29T09:12:15;96745.75;;;0.13;70.94
29247;BME280;16272;48.188;9.964;2023-01-29T09:14:40;96742.25;;;0.54;70.31
29247;BME280;16272;48.188;9.964;2023-01-29T09:17:06;96745.22;;;0.26;69.38
29247;BME280;16272;48.188;9.964;2023-01-29T09:19:31;96750.78;;;0.59;69.66
29247;BME280;16272;48.188;9.964;2023-01-29T09:21:56;96754.50;;;0.53;69.66
29247;BME280;16272;48.188;9.964;2023-01-29T09:24:22;96750.97;;;0.54;69.34
29247;BME280;16272;48.188;9.964;2023-01-29T09:26:47;96752.16;;;0.27;70.45
29247;BME280;16272;48.188;9.964;2023-01-29T09:29:12;96749.13;;;0.57;69.44
29247;BME280;16272;48.188;9.964;2023-01-29T09:31:38;96755.50;;;0.51;69.46
29247;BME280;16272;48.188;9.964;2023-01-29T09:34:03;96745.63;;;0.58;68.80
29247;BME280;16272;48.188;9.964;2023-01-29T09:36:29;96750.44;;;0.26;68.40
29247;BME280;16272;48.188;9.964;2023-01-29T09:38:54;96753.06;;;0.26;69.48
29247;BME280;16272;48.188;9.964;2023-01-29T09:43:56;96760.63;;;0.52;69.99
29247;BME280;16272;48.188;9.964;2023-01-29T09:46:43;96763.41;;;0.49;70.27
29247;BME280;16272;48.188;9.964;2023-01-29T09:49:28;96767.03;;;0.45;69.35
29247;BME280;16272;48.188;9.964;2023-01-29T09:52:03;96760.25;;;1.20;68.07
29247;BME280;16272;48.188;9.964;2023-01-29T09:54:45;96778.66;;;0.17;70.21
29247;BME280;16272;48.188;9.964;2023-01-29T09:57:26;96783.50;;;0.27;70.37
29247;BME280;16272;48.188;9.964;2023-01-29T09:59:54;96779.66;;;0.56;69.24
29247;BME280;16272;48.188;9.964;2023-01-29T10:05:14;96777.88;;;-0.27;71.45
29247;BME280;16272;48.188;9.964;2023-01-29T10:08:03;96780.72;;;-0.56;72.76
29247;BME280;16272;48.188;9.964;2023-01-29T10:11:00;96781.31;;;-0.05;71.48
29247;BME280;16272;48.188;9.964;2023-01-29T10:20:17;96759.97;;;0.47;70.47
29247;BME280;16272;48.188;9.964;2023-01-29T10:22:59;96755.38;;;0.11;71.90
29247;BME280;16272;48.188;9.964;2023-01-29T10:25:27;96744.22;;;0.08;71.19
29247;BME280;16272;48.188;9.964;2023-01-29T10:27:55;96745.03;;;0.51;70.61
29247;BME280;16272;48.188;9.964;2023-01-29T10:30:29;96747.72;;;0.89;69.52
29247;BME280;16272;48.188;9.964;2023-01-29T10:33:00;96752.25;;;0.44;69.86
29247;BME280;16272;48.188;9.964;2023-01-29T10:35:42;96746.66;;;1.12;68.97
29247;BME280;16272;48.188;9.964;2023-01-29T10:38:20;96750.03;;;0.95;67.16
29247;BME280;16272;48.188;9.964;2023-01-29T10:40:58;96738.88;;;1.10;66.56
29247;BME280;16272;48.188;9.964;2023-01-29T10:43:37;96735.16;;;0.58;70.17
29247;BME280;16272;48.188;9.964;2023-01-29T10:51:37;96733.06;;;0.85;67.14
29247;BME280;16272;48.188;9.964;2023-01-29T10:57:05;96724.09;;;0.90;68.53
29247;BME280;16272;48.188;9.964;2023-01-29T10:59:36;96715.53;;;1.06;68.45
29247;BME280;16272;48.188;9.964;2023-01-29T11:02:16;96725.47;;;0.39;69.10
29247;BME280;16272;48.188;9.964;2023-01-29T11:04:43;96721.50;;;0.90;69.29
29247;BME280;16272;48.188;9.964;2023-01-29T11:07:09;96713.16;;;0.82;69.52
29247;BME280;16272;48.188;9.964;2023-01-29T11:09:39;96708.59;;;1.05;67.34
29247;BME280;16272;48.188;9.964;2023-01-29T11:12:15;96710.16;;;0.71;69.22
29247;BME280;16272;48.188;9.964;2023-01-29T11:14:50;96707.38;;;-0.07;71.24
29247;BME280;16272;48.188;9.964;2023-01-29T11:17:19;96713.38;;;-0.25;71.72
29247;BME280;16272;48.188;9.964;2023-01-29T11:19:48;96704.25;;;0.26;69.70
29247;BME280;16272;48.188;9.964;2023-01-29T11:22:19;96705.78;;;-0.31;72.40
29247;BME280;16272;48.188;9.964;2023-01-29T11:24:45;96703.03;;;-0.06;72.75
29247;BME280;16272;48.188;9.964;2023-01-29T11:27:22;96699.75;;;0.30;70.34
29247;BME280;16272;48.188;9.964;2023-01-29T11:29:48;96691.41;;;0.22;70.20
29247;BME280;16272;48.188;9.964;2023-01-29T11:32:34;96687.88;;;1.19;70.25
29247;BME280;16272;48.188;9.964;2023-01-29T11:35:01;96688.69;;;0.44;68.89
29247;BME280;16272;48.188;9.964;2023-01-29T11:39:56;96690.41;;;1.40;68.47
29247;BME280;16272;48.188;9.964;2023-01-29T11:42:22;96698.72;;;1.12;66.44
29247;BME280;16272;48.188;9.964;2023-01-29T11:44:48;96680.63;;;0.88;67.98
29247;BME280;16272;48.188;9.964;2023-01-29T11:52:12;96680.31;;;1.13;67.24
29247;BME280;16272;48.188;9.964;2023-01-29T11:54:46;96682.56;;;1.21;69.01
29247;BME280;16272;48.188;9.964;2023-01-29T11:57:26;96684.31;;;1.39;67.80
29247;BME280;16272;48.188;9.964;2023-01-29T11:59:54;96686.44;;;0.76;67.57
29247;BME280;16272;48.188;9.964;2023-01-29T12:05:03;96690.50;;;0.81;66.58
29247;BME280;16272;48.188;9.964;2023-01-29T12:07:30;96688.53;;;0.86;68.98
29247;BME280;16272;48.188;9.964;2023-01-29T12:09:57;96689.09;;;0.74;68.20
29247;BME280;16272;48.188;9.964;2023-01-29T12:12:37;96685.81;;;1.26;68.26
29247;BME280;16272;48.188;9.964;2023-01-29T12:15:18;96672.50;;;1.50;65.85
29247;BME280;16272;48.188;9.964;2023-01-29T12:20:46;96660.13;;;1.71;65.93
29247;BME280;16272;48.188;9.964;2023-01-29T12:23:31;96655.44;;;1.23;66.75
29247;BME280;16272;48.188;9.964;2023-01-29T12:26:11;96652.41;;;0.95;68.92
29247;BME280;16272;48.188;9.964;2023-01-29T12:31:58;96633.38;;;0.15;72.04
29247;BME280;16272;48.188;9.964;2023-01-29T12:34:32;96620.19;;;0.37;70.69
29247;BME280;16272;48.188;9.964;2023-01-29T12:37:09;96625.72;;;-0.10;74.10
29247;BME280;16272;48.188;9.964;2023-01-29T12:39:37;96611.66;;;0.71;70.09
29247;BME280;16272;48.188;9.964;2023-01-29T12:42:32;96608.59;;;0.24;73.31
29247;BME280;16272;48.188;9.964;2023-01-29T12:45:02;96615.53;;;0.04;72.39
29247;BME280;16272;48.188;9.964;2023-01-29T12:47:35;96614.13;;;-0.03;73.76
29247;BME280;16272;48.188;9.964;2023-01-29T12:50:05;96608.97;;;0.14;72.15
29247;BME280;16272;48.188;9.964;2023-01-29T12:52:38;96614.47;;;0.67;70.00
29247;BME280;16272;48.188;9.964;2023-01-29T12:57:49;96613.41;;;0.33;70.61
29247;BME280;16272;48.188;9.964;2023-01-29T13:00:22;96602.75;;;0.57;69.92
29247;BME280;16272;48.188;9.964;2023-01-29T13:05:56;96601.53;;;0.64;71.61
29247;BME280;16272;48.188;9.964;2023-01-29T13:08:29;96600.34;;;0.33;72.58
29247;BME280;16272;48.188;9.964;2023-01-29T13:11:00;96598.91;;;0.64;71.53
29247;BME280;16272;48.188;9.964;2023-01-29T13:16:03;96591.16;;;0.43;71.51
29247;BME280;16272;48.188;9.964;2023-01-29T13:18:45;96587.47;;;0.47;72.32
29247;BME280;16272;48.188;9.964;2023-01-29T13:21:15;96597.38;;;0.22;71.10
29247;BME280;16272;48.188;9.964;2023-01-29T13:23:50;96587.03;;;0.18;72.44
29247;BME280;16272;48.188;9.964;2023-01-29T13:26:19;96590.56;;;0.17;73.25
29247;BME280;16272;48.188;9.964;2023-01-29T13:28:45;96583.69;;;0.54;70.06
29247;BME280;16272;48.188;9.964;2023-01-29T13:31:30;96577.09;;;0.65;69.96
29247;BME280;16272;48.188;9.964;2023-01-29T13:34:06;96584.38;;;0.77;70.16
29247;BME280;16272;48.188;9.964;2023-01-29T13:36:33;96580.16;;;0.36;72.54
29247;BME280;16272;48.188;9.964;2023-01-29T13:39:06;96577.47;;;0.38;71.57
29247;BME280;16272;48.188;9.964;2023-01-29T13:41:39;96572.91;;;0.23;71.92
29247;BME280;16272;48.188;9.964;2023-01-29T13:44:17;96547.38;;;0.48;72.43
29247;BME280;16272;48.188;9.964;2023-01-29T13:46:48;96543.50;;;0.38;71.54
29247;BME280;16272;48.188;9.964;2023-01-29T13:49:29;96539.44;;;0.31;71.36
29247;BME280;16272;48.188;9.964;2023-01-29T13:51:56;96530.91;;;0.08;70.96
29247;BME280;16272;48.188;9.964;2023-01-29T13:54:24;96535.94;;;0.32;70.73
29247;BME280;16272;48.188;9.964;2023-01-29T13:56:58;96532.81;;;0.43;70.13
29247;BME280;16272;48.188;9.964;2023-01-29T14:02:25;96531.69;;;0.10;73.08
29247;BME280;16272;48.188;9.964;2023-01-29T14:10:24;96526.16;;;-0.42;74.48
29247;BME280;16272;48.188;9.964;2023-01-29T14:12:51;96524.19;;;0.03;73.35
29247;BME280;16272;48.188;9.964;2023-01-29T14:15:25;96526.38;;;-0.07;71.67
29247;BME280;16272;48.188;9.964;2023-01-29T14:17:57;96525.34;;;0.35;72.37
29247;BME280;16272;48.188;9.964;2023-01-29T14:23:39;96535.06;;;0.12;72.22
29247;BME280;16272;48.188;9.964;2023-01-29T14:26:32;96540.38;;;0.11;73.34
29247;BME280;16272;48.188;9.964;2023-01-29T14:31:43;96541.41;;;0.64;70.70
29247;BME280;16272;48.188;9.964;2023-01-29T14:34:19;96548.34;;;0.27;70.86
29247;BME280;16272;48.188;9.964;2023-01-29T14:36:47;96542.22;;;0.09;72.17
29247;BME280;16272;48.188;9.964;2023-01-29T14:39:52;96555.97;;;-0.27;72.24
29247;BME280;16272;48.188;9.964;2023-01-29T14:55:45;96546.66;;;0.26;71.41
29247;BME280;16272;48.188;9.964;2023-01-29T14:58:21;96547.22;;;0.13;71.78
29247;BME280;16272;48.188;9.964;2023-01-29T15:00:50;96549.91;;;0.31;71.30
29247;BME280;16272;48.188;9.964;2023-01-29T15:03:21;96552.09;;;0.21;70.48
29247;BME280;16272;48.188;9.964;2023-01-29T15:05:51;96548.47;;;0.05;70.97
29247;BME280;16272;48.188;9.964;2023-01-29T15:10:56;96555.25;;;0.28;71.04
29247;BME280;16272;48.188;9.964;2023-01-29T15:13:49;96550.03;;;0.66;70.14